sensor_id;sensor_type;location;lat;lon;timestamp;P1;durP1;ratioP1;P2;durP2;ratioP2
26965;SDS011;14522;52.068;4.414;2022-11-15T00:00:30;38.50;;;19.38;;
26965;SDS011;14522;52.068;4.414;2022-11-15T00:02:56;36.83;;;17.65;;
26965;SDS011;14522;52.068;4.414;2022-11-15T00:05:23;37.78;;;18.77;;
26965;SDS011;14522;52.068;4.414;2022-11-15T00:07:49;53.38;;;20.55;;
26965;SDS011;14522;52.068;4.414;2022-11-15T00:10:23;42.55;;;20.25;;
26965;SDS011;14522;52.068;4.414;2022-11-15T00:12:49;41.47;;;19.58;;
26965;SDS011;14522;52.068;4.414;2022-11-15T00:15:16;41.33;;;21.13;;
26965;SDS011;14522;52.068;4.414;2022-11-15T00:17:42;37.95;;;19.42;;
26965;SDS011;14522;52.068;4.414;2022-11-15T00:20:08;40.53;;;18.30;;
26965;SDS011;14522;52.068;4.414;2022-11-15T00:22:35;45.58;;;20.58;;
26965;SDS011;14522;52.068;4.414;2022-11-15T00:25:01;43.35;;;20.95;;
26965;SDS011;14522;52.068;4.414;2022-11-15T00:27:29;46.60;;;19.63;;
26965;SDS011;14522;52.068;4.414;2022-11-15T00:29:55;38.75;;;18.35;;
26965;SDS011;14522;52.068;4.414;2022-11-15T00:32:22;40.78;;;20.67;;
26965;SDS011;14522;52.068;4.414;2022-11-15T00:34:48;36.58;;;17.02;;
26965;SDS011;14522;52.068;4.414;2022-11-15T00:37:14;39.17;;;19.92;;
26965;SDS011;14522;52.068;4.414;2022-11-15T00:39:41;27.40;;;13.18;;
26965;SDS011;14522;52.068;4.414;2022-11-15T00:42:07;36.60;;;19.23;;
26965;SDS011;14522;52.068;4.414;2022-11-15T00:44:33;43.95;;;19.73;;
26965;SDS011;14522;52.068;4.414;2022-11-15T00:47:00;42.08;;;20.40;;
26965;SDS011;14522;52.068;4.414;2022-11-15T00:49:26;47.80;;;21.75;;
26965;SDS011;14522;52.068;4.414;2022-11-15T00:51:52;44.20;;;20.58;;
26965;SDS011;14522;52.068;4.414;2022-11-15T00:54:19;51.20;;;23.40;;
26965;SDS011;14522;52.068;4.414;2022-11-15T00:56:45;41.63;;;19.20;;
26965;SDS011;14522;52.068;4.414;2022-11-15T00:59:11;44.30;;;21.55;;
26965;SDS011;14522;52.068;4.414;2022-11-15T01:01:38;50.63;;;21.67;;
26965;SDS011;14522;52.068;4.414;2022-11-15T01:04:04;38.17;;;18.33;;
26965;SDS011;14522;52.068;4.414;2022-11-15T01:06:30;49.30;;;21.77;;
26965;SDS011;14522;52.068;4.414;2022-11-15T01:08:57;47.90;;;22.70;;
26965;SDS011;14522;52.068;4.414;2022-11-15T01:11:23;49.92;;;21.30;;
26965;SDS011;14522;52.068;4.414;2022-11-15T01:13:49;43.70;;;20.42;;
26965;SDS011;14522;52.068;4.414;2022-11-15T01:16:16;47.60;;;22.27;;
26965;SDS011;14522;52.068;4.414;2022-11-15T01:18:45;53.55;;;23.00;;
26965;SDS011;14522;52.068;4.414;2022-11-15T01:21:16;53.58;;;22.63;;
26965;SDS011;14522;52.068;4.414;2022-11-15T01:23:42;52.35;;;21.63;;
26965;SDS011;14522;52.068;4.414;2022-11-15T01:26:10;59.40;;;24.38;;
26965;SDS011;14522;52.068;4.414;2022-11-15T01:28:37;57.95;;;22.63;;
26965;SDS011;14522;52.068;4.414;2022-11-15T01:31:13;48.85;;;22.17;;
26965;SDS011;14522;52.068;4.414;2022-11-15T01:33:39;53.53;;;21.88;;
26965;SDS011;14522;52.068;4.414;2022-11-15T01:36:07;52.35;;;22.75;;
26965;SDS011;14522;52.068;4.414;2022-11-15T01:38:34;45.75;;;19.80;;
26965;SDS011;14522;52.068;4.414;2022-11-15T01:41:00;64.03;;;23.63;;
26965;SDS011;14522;52.068;4.414;2022-11-15T01:43:31;52.75;;;23.20;;
26965;SDS011;14522;52.068;4.414;2022-11-15T01:45:59;48.50;;;20.60;;
26965;SDS011;14522;52.068;4.414;2022-11-15T01:48:28;54.08;;;22.00;;
26965;SDS011;14522;52.068;4.414;2022-11-15T01:50:58;51.15;;;22.20;;
26965;SDS011;14522;52.068;4.414;2022-11-15T01:53:25;59.67;;;25.88;;
26965;SDS011;14522;52.068;4.414;2022-11-15T01:55:52;53.13;;;25.00;;
26965;SDS011;14522;52.068;4.414;2022-11-15T01:58:19;63.65;;;25.00;;
26965;SDS011;14522;52.068;4.414;2022-11-15T02:00:46;59.05;;;24.80;;
26965;SDS011;14522;52.068;4.414;2022-11-15T02:03:13;61.20;;;24.85;;
26965;SDS011;14522;52.068;4.414;2022-11-15T02:05:40;68.65;;;26.23;;
26965;SDS011;14522;52.068;4.414;2022-11-15T02:08:08;61.70;;;25.58;;
26965;SDS011;14522;52.068;4.414;2022-11-15T02:10:34;58.15;;;24.25;;
26965;SDS011;14522;52.068;4.414;2022-11-15T02:13:01;61.17;;;23.67;;
26965;SDS011;14522;52.068;4.414;2022-11-15T02:15:30;62.13;;;24.92;;
26965;SDS011;14522;52.068;4.414;2022-11-15T02:18:02;59.20;;;26.33;;
26965;SDS011;14522;52.068;4.414;2022-11-15T02:23:04;64.55;;;24.95;;
26965;SDS011;14522;52.068;4.414;2022-11-15T02:25:41;59.17;;;24.98;;
26965;SDS011;14522;52.068;4.414;2022-11-15T02:43:29;46.85;;;21.63;;
26965;SDS011;14522;52.068;4.414;2022-11-15T02:46:20;55.13;;;24.02;;
26965;SDS011;14522;52.068;4.414;2022-11-15T02:48:48;49.80;;;24.25;;
26965;SDS011;14522;52.068;4.414;2022-11-15T02:51:14;59.88;;;25.45;;
26965;SDS011;14522;52.068;4.414;2022-11-15T02:53:42;55.30;;;24.45;;
26965;SDS011;14522;52.068;4.414;2022-11-15T02:56:08;60.38;;;24.17;;
26965;SDS011;14522;52.068;4.414;2022-11-15T03:03:53;51.72;;;22.83;;
26965;SDS011;14522;52.068;4.414;2022-11-15T03:09:02;45.67;;;20.73;;
26965;SDS011;14522;52.068;4.414;2022-11-15T03:11:32;46.88;;;22.30;;
26965;SDS011;14522;52.068;4.414;2022-11-15T03:16:46;50.97;;;21.33;;
26965;SDS011;14522;52.068;4.414;2022-11-15T03:19:23;44.08;;;21.80;;
26965;SDS011;14522;52.068;4.414;2022-11-15T03:21:52;42.20;;;19.42;;
26965;SDS011;14522;52.068;4.414;2022-11-15T03:24:21;39.88;;;20.48;;
26965;SDS011;14522;52.068;4.414;2022-11-15T03:26:51;45.97;;;19.83;;
26965;SDS011;14522;52.068;4.414;2022-11-15T03:29:22;37.17;;;18.73;;
26965;SDS011;14522;52.068;4.414;2022-11-15T03:31:51;38.85;;;19.58;;
26965;SDS011;14522;52.068;4.414;2022-11-15T03:34:22;37.30;;;19.40;;
26965;SDS011;14522;52.068;4.414;2022-11-15T03:36:49;36.78;;;17.95;;
26965;SDS011;14522;52.068;4.414;2022-11-15T03:39:17;33.53;;;16.77;;
26965;SDS011;14522;52.068;4.414;2022-11-15T03:49:25;34.47;;;16.98;;
26965;SDS011;14522;52.068;4.414;2022-11-15T03:51:53;27.77;;;16.50;;
26965;SDS011;14522;52.068;4.414;2022-11-15T03:54:19;31.52;;;16.05;;
26965;SDS011;14522;52.068;4.414;2022-11-15T03:56:45;30.40;;;15.85;;
26965;SDS011;14522;52.068;4.414;2022-11-15T03:59:12;25.95;;;14.02;;
26965;SDS011;14522;52.068;4.414;2022-11-15T04:01:38;19.77;;;11.77;;
26965;SDS011;14522;52.068;4.414;2022-11-15T04:04:05;20.55;;;10.95;;
26965;SDS011;14522;52.068;4.414;2022-11-15T04:06:31;28.63;;;9.95;;
26965;SDS011;14522;52.068;4.414;2022-11-15T04:08:57;16.27;;;8.15;;
26965;SDS011;14522;52.068;4.414;2022-11-15T04:11:24;18.15;;;8.55;;
26965;SDS011;14522;52.068;4.414;2022-11-15T04:13:50;12.88;;;7.13;;
26965;SDS011;14522;52.068;4.414;2022-11-15T04:16:16;18.92;;;7.78;;
26965;SDS011;14522;52.068;4.414;2022-11-15T04:18:43;14.25;;;7.13;;
26965;SDS011;14522;52.068;4.414;2022-11-15T04:21:09;13.07;;;6.65;;
26965;SDS011;14522;52.068;4.414;2022-11-15T04:23:54;14.45;;;6.47;;
26965;SDS011;14522;52.068;4.414;2022-11-15T04:26:38;15.20;;;6.95;;
26965;SDS011;14522;52.068;4.414;2022-11-15T04:29:06;15.50;;;6.45;;
26965;SDS011;14522;52.068;4.414;2022-11-15T04:31:51;15.50;;;6.75;;
26965;SDS011;14522;52.068;4.414;2022-11-15T04:34:18;16.52;;;6.78;;
26965;SDS011;14522;52.068;4.414;2022-11-15T04:36:44;15.70;;;6.03;;
26965;SDS011;14522;52.068;4.414;2022-11-15T04:39:29;11.45;;;5.22;;
26965;SDS011;14522;52.068;4.414;2022-11-15T04:41:55;14.80;;;5.53;;
26965;SDS011;14522;52.068;4.414;2022-11-15T04:44:21;13.50;;;5.05;;
26965;SDS011;14522;52.068;4.414;2022-11-15T04:46:48;14.65;;;5.35;;
26965;SDS011;14522;52.068;4.414;2022-11-15T04:49:15;13.38;;;5.68;;
26965;SDS011;14522;52.068;4.414;2022-11-15T04:51:42;13.15;;;5.35;;
26965;SDS011;14522;52.068;4.414;2022-11-15T04:54:09;14.18;;;5.32;;
26965;SDS011;14522;52.068;4.414;2022-11-15T04:56:35;11.77;;;4.70;;
26965;SDS011;14522;52.068;4.414;2022-11-15T04:59:01;12.05;;;5.22;;
26965;SDS011;14522;52.068;4.414;2022-11-15T05:01:28;11.02;;;4.90;;
26965;SDS011;14522;52.068;4.414;2022-11-15T05:03:54;12.50;;;5.35;;
26965;SDS011;14522;52.068;4.414;2022-11-15T05:06:39;20.20;;;5.50;;
26965;SDS011;14522;52.068;4.414;2022-11-15T05:09:06;11.38;;;5.05;;
26965;SDS011;14522;52.068;4.414;2022-11-15T05:11:32;12.80;;;5.43;;
26965;SDS011;14522;52.068;4.414;2022-11-15T05:13:58;12.85;;;5.03;;
26965;SDS011;14522;52.068;4.414;2022-11-15T05:16:25;17.15;;;6.22;;
26965;SDS011;14522;52.068;4.414;2022-11-15T05:18:51;14.02;;;4.75;;
26965;SDS011;14522;52.068;4.414;2022-11-15T05:21:18;11.32;;;4.95;;
26965;SDS011;14522;52.068;4.414;2022-11-15T05:23:44;10.00;;;4.15;;
26965;SDS011;14522;52.068;4.414;2022-11-15T05:26:15;11.27;;;4.90;;
26965;SDS011;14522;52.068;4.414;2022-11-15T05:28:41;15.38;;;4.68;;
26965;SDS011;14522;52.068;4.414;2022-11-15T05:31:09;13.60;;;4.22;;
26965;SDS011;14522;52.068;4.414;2022-11-15T05:33:36;12.18;;;4.00;;
26965;SDS011;14522;52.068;4.414;2022-11-15T05:38:33;15.35;;;3.65;;
26965;SDS011;14522;52.068;4.414;2022-11-15T05:41:02;13.15;;;2.75;;
26965;SDS011;14522;52.068;4.414;2022-11-15T05:43:29;10.48;;;3.45;;
26965;SDS011;14522;52.068;4.414;2022-11-15T05:45:57;7.03;;;3.00;;
26965;SDS011;14522;52.068;4.414;2022-11-15T05:48:25;8.70;;;3.10;;
26965;SDS011;14522;52.068;4.414;2022-11-15T05:50:51;10.48;;;3.30;;
26965;SDS011;14522;52.068;4.414;2022-11-15T05:53:19;8.25;;;2.78;;
26965;SDS011;14522;52.068;4.414;2022-11-15T05:55:47;6.13;;;2.70;;
26965;SDS011;14522;52.068;4.414;2022-11-15T05:58:13;8.95;;;3.00;;
26965;SDS011;14522;52.068;4.414;2022-11-15T06:00:40;11.88;;;4.05;;
26965;SDS011;14522;52.068;4.414;2022-11-15T06:03:06;7.80;;;2.42;;
26965;SDS011;14522;52.068;4.414;2022-11-15T06:05:32;10.98;;;2.28;;
26965;SDS011;14522;52.068;4.414;2022-11-15T06:07:59;7.22;;;2.50;;
26965;SDS011;14522;52.068;4.414;2022-11-15T06:10:25;8.35;;;3.25;;
26965;SDS011;14522;52.068;4.414;2022-11-15T06:13:02;10.50;;;3.38;;
26965;SDS011;14522;52.068;4.414;2022-11-15T06:15:28;9.02;;;2.60;;
26965;SDS011;14522;52.068;4.414;2022-11-15T06:17:56;9.77;;;2.70;;
26965;SDS011;14522;52.068;4.414;2022-11-15T06:20:24;11.73;;;2.80;;
26965;SDS011;14522;52.068;4.414;2022-11-15T06:22:50;8.70;;;2.60;;
26965;SDS011;14522;52.068;4.414;2022-11-15T06:25:17;10.60;;;1.83;;
26965;SDS011;14522;52.068;4.414;2022-11-15T06:27:43;6.57;;;2.15;;
26965;SDS011;14522;52.068;4.414;2022-11-15T06:30:09;7.35;;;2.13;;
26965;SDS011;14522;52.068;4.414;2022-11-15T06:32:36;9.45;;;2.88;;
26965;SDS011;14522;52.068;4.414;2022-11-15T06:35:02;7.45;;;2.53;;
26965;SDS011;14522;52.068;4.414;2022-11-15T06:37:29;6.97;;;2.60;;
26965;SDS011;14522;52.068;4.414;2022-11-15T06:39:55;8.48;;;2.10;;
26965;SDS011;14522;52.068;4.414;2022-11-15T06:42:21;7.00;;;1.88;;
26965;SDS011;14522;52.068;4.414;2022-11-15T06:44:48;5.75;;;1.98;;
26965;SDS011;14522;52.068;4.414;2022-11-15T06:47:14;8.57;;;2.15;;
26965;SDS011;14522;52.068;4.414;2022-11-15T06:49:40;13.70;;;2.53;;
26965;SDS011;14522;52.068;4.414;2022-11-15T06:52:07;7.32;;;1.83;;
26965;SDS011;14522;52.068;4.414;2022-11-15T06:54:33;8.18;;;2.50;;
26965;SDS011;14522;52.068;4.414;2022-11-15T06:57:00;9.32;;;2.35;;
26965;SDS011;14522;52.068;4.414;2022-11-15T06:59:26;3.15;;;1.70;;
26965;SDS011;14522;52.068;4.414;2022-11-15T07:01:52;5.47;;;2.13;;
26965;SDS011;14522;52.068;4.414;2022-11-15T07:04:19;8.38;;;2.30;;
26965;SDS011;14522;52.068;4.414;2022-11-15T07:06:48;6.97;;;2.13;;
26965;SDS011;14522;52.068;4.414;2022-11-15T07:09:14;10.18;;;1.90;;
26965;SDS011;14522;52.068;4.414;2022-11-15T07:11:41;10.45;;;1.88;;
26965;SDS011;14522;52.068;4.414;2022-11-15T07:14:07;8.82;;;2.40;;
26965;SDS011;14522;52.068;4.414;2022-11-15T07:16:33;4.18;;;1.50;;
26965;SDS011;14522;52.068;4.414;2022-11-15T07:19:00;6.15;;;1.98;;
26965;SDS011;14522;52.068;4.414;2022-11-15T07:21:26;8.27;;;2.40;;
26965;SDS011;14522;52.068;4.414;2022-11-15T07:23:53;5.28;;;2.08;;
26965;SDS011;14522;52.068;4.414;2022-11-15T07:26:19;5.00;;;1.70;;
26965;SDS011;14522;52.068;4.414;2022-11-15T07:28:45;8.25;;;2.63;;
26965;SDS011;14522;52.068;4.414;2022-11-15T07:31:12;8.32;;;2.63;;
26965;SDS011;14522;52.068;4.414;2022-11-15T07:33:38;8.68;;;2.10;;
26965;SDS011;14522;52.068;4.414;2022-11-15T07:36:05;8.90;;;3.08;;
26965;SDS011;14522;52.068;4.414;2022-11-15T07:38:32;12.18;;;2.53;;
26965;SDS011;14522;52.068;4.414;2022-11-15T07:41:07;5.28;;;2.30;;
26965;SDS011;14522;52.068;4.414;2022-11-15T07:43:33;7.15;;;2.60;;
26965;SDS011;14522;52.068;4.414;2022-11-15T07:46:06;9.15;;;2.83;;
26965;SDS011;14522;52.068;4.414;2022-11-15T07:48:35;7.23;;;2.60;;
26965;SDS011;14522;52.068;4.414;2022-11-15T07:51:13;7.97;;;3.08;;
26965;SDS011;14522;52.068;4.414;2022-11-15T07:53:40;9.80;;;2.90;;
26965;SDS011;14522;52.068;4.414;2022-11-15T07:56:07;12.18;;;2.35;;
26965;SDS011;14522;52.068;4.414;2022-11-15T07:58:34;7.30;;;2.83;;
26965;SDS011;14522;52.068;4.414;2022-11-15T08:01:07;9.15;;;2.33;;
26965;SDS011;14522;52.068;4.414;2022-11-15T08:03:34;5.55;;;2.78;;
26965;SDS011;14522;52.068;4.414;2022-11-15T08:06:03;7.28;;;2.10;;
26965;SDS011;14522;52.068;4.414;2022-11-15T08:08:29;3.80;;;1.60;;
26965;SDS011;14522;52.068;4.414;2022-11-15T08:10:59;6.78;;;2.47;;
26965;SDS011;14522;52.068;4.414;2022-11-15T08:13:26;7.95;;;2.10;;
26965;SDS011;14522;52.068;4.414;2022-11-15T08:15:56;3.95;;;1.55;;
26965;SDS011;14522;52.068;4.414;2022-11-15T08:18:23;5.13;;;1.95;;
26965;SDS011;14522;52.068;4.414;2022-11-15T08:20:49;5.97;;;2.45;;
26965;SDS011;14522;52.068;4.414;2022-11-15T08:23:16;9.23;;;2.60;;
26965;SDS011;14522;52.068;4.414;2022-11-15T08:25:42;7.30;;;2.35;;
26965;SDS011;14522;52.068;4.414;2022-11-15T08:28:09;8.40;;;2.35;;
26965;SDS011;14522;52.068;4.414;2022-11-15T08:30:39;5.47;;;2.45;;
26965;SDS011;14522;52.068;4.414;2022-11-15T08:33:12;7.53;;;2.83;;
26965;SDS011;14522;52.068;4.414;2022-11-15T08:35:39;9.55;;;2.72;;
26965;SDS011;14522;52.068;4.414;2022-11-15T08:38:06;9.63;;;2.90;;
26965;SDS011;14522;52.068;4.414;2022-11-15T08:40:32;8.85;;;2.40;;
26965;SDS011;14522;52.068;4.414;2022-11-15T08:42:58;5.47;;;2.42;;
26965;SDS011;14522;52.068;4.414;2022-11-15T08:45:29;7.20;;;2.83;;
26965;SDS011;14522;52.068;4.414;2022-11-15T08:47:55;5.43;;;2.15;;
26965;SDS011;14522;52.068;4.414;2022-11-15T08:50:22;6.40;;;3.08;;
26965;SDS011;14522;52.068;4.414;2022-11-15T08:52:48;7.20;;;3.00;;
26965;SDS011;14522;52.068;4.414;2022-11-15T08:55:15;7.45;;;2.10;;
26965;SDS011;14522;52.068;4.414;2022-11-15T08:57:43;8.38;;;3.20;;
26965;SDS011;14522;52.068;4.414;2022-11-15T09:00:09;7.70;;;3.20;;
26965;SDS011;14522;52.068;4.414;2022-11-15T09:02:38;7.95;;;2.60;;
26965;SDS011;14522;52.068;4.414;2022-11-15T09:05:05;7.68;;;2.50;;
26965;SDS011;14522;52.068;4.414;2022-11-15T09:07:31;8.70;;;3.33;;
26965;SDS011;14522;52.068;4.414;2022-11-15T09:09:58;5.05;;;2.50;;
26965;SDS011;14522;52.068;4.414;2022-11-15T09:12:24;7.22;;;2.92;;
26965;SDS011;14522;52.068;4.414;2022-11-15T09:14:51;6.65;;;2.50;;
26965;SDS011;14522;52.068;4.414;2022-11-15T09:17:18;6.18;;;2.00;;
26965;SDS011;14522;52.068;4.414;2022-11-15T09:19:50;6.70;;;2.58;;
26965;SDS011;14522;52.068;4.414;2022-11-15T09:22:16;7.63;;;2.55;;
26965;SDS011;14522;52.068;4.414;2022-11-15T09:24:42;7.35;;;2.17;;
26965;SDS011;14522;52.068;4.414;2022-11-15T09:27:09;5.13;;;2.00;;
26965;SDS011;14522;52.068;4.414;2022-11-15T09:29:35;8.20;;;3.25;;
26965;SDS011;14522;52.068;4.414;2022-11-15T09:32:02;5.32;;;2.20;;
26965;SDS011;14522;52.068;4.414;2022-11-15T09:34:28;5.40;;;2.40;;
26965;SDS011;14522;52.068;4.414;2022-11-15T09:36:55;4.65;;;2.38;;
26965;SDS011;14522;52.068;4.414;2022-11-15T09:39:23;6.90;;;2.50;;
26965;SDS011;14522;52.068;4.414;2022-11-15T09:44:29;6.32;;;2.83;;
26965;SDS011;14522;52.068;4.414;2022-11-15T09:49:44;5.85;;;2.75;;
26965;SDS011;14522;52.068;4.414;2022-11-15T09:52:11;6.22;;;2.95;;
26965;SDS011;14522;52.068;4.414;2022-11-15T09:54:38;7.30;;;2.72;;
26965;SDS011;14522;52.068;4.414;2022-11-15T10:00:28;4.50;;;2.45;;
26965;SDS011;14522;52.068;4.414;2022-11-15T10:05:51;8.63;;;2.35;;
26965;SDS011;14522;52.068;4.414;2022-11-15T10:11:04;6.10;;;2.15;;
26965;SDS011;14522;52.068;4.414;2022-11-15T10:13:52;5.35;;;3.03;;
26965;SDS011;14522;52.068;4.414;2022-11-15T10:24:12;6.35;;;1.88;;
26965;SDS011;14522;52.068;4.414;2022-11-15T10:26:45;5.05;;;1.90;;
26965;SDS011;14522;52.068;4.414;2022-11-15T10:29:11;5.68;;;1.67;;
26965;SDS011;14522;52.068;4.414;2022-11-15T10:31:43;5.40;;;1.33;;
26965;SDS011;14522;52.068;4.414;2022-11-15T10:34:16;6.82;;;2.05;;
26965;SDS011;14522;52.068;4.414;2022-11-15T10:36:45;2.30;;;1.70;;
26965;SDS011;14522;52.068;4.414;2022-11-15T10:39:15;8.85;;;1.70;;
26965;SDS011;14522;52.068;4.414;2022-11-15T10:41:42;3.92;;;1.63;;
26965;SDS011;14522;52.068;4.414;2022-11-15T10:44:22;5.43;;;1.33;;
26965;SDS011;14522;52.068;4.414;2022-11-15T10:56:59;3.00;;;0.98;;
26965;SDS011;14522;52.068;4.414;2022-11-15T10:59:28;4.70;;;1.20;;
26965;SDS011;14522;52.068;4.414;2022-11-15T11:01:59;7.20;;;1.33;;
26965;SDS011;14522;52.068;4.414;2022-11-15T11:04:26;8.80;;;1.75;;
26965;SDS011;14522;52.068;4.414;2022-11-15T11:06:53;4.18;;;1.55;;
26965;SDS011;14522;52.068;4.414;2022-11-15T11:11:51;4.65;;;1.33;;
26965;SDS011;14522;52.068;4.414;2022-11-15T11:14:21;5.65;;;1.50;;
26965;SDS011;14522;52.068;4.414;2022-11-15T11:21:51;9.50;;;1.92;;
26965;SDS011;14522;52.068;4.414;2022-11-15T11:25:07;6.50;;;1.58;;
26965;SDS011;14522;52.068;4.414;2022-11-15T11:29:58;4.47;;;1.30;;
26965;SDS011;14522;52.068;4.414;2022-11-15T11:32:32;5.30;;;1.20;;
26965;SDS011;14522;52.068;4.414;2022-11-15T11:40:13;7.40;;;1.50;;
26965;SDS011;14522;52.068;4.414;2022-11-15T11:42:55;10.20;;;1.50;;
26965;SDS011;14522;52.068;4.414;2022-11-15T11:50:44;5.13;;;1.38;;
26965;SDS011;14522;52.068;4.414;2022-11-15T11:55:47;6.65;;;1.42;;
26965;SDS011;14522;52.068;4.414;2022-11-15T12:01:25;8.45;;;1.15;;
26965;SDS011;14522;52.068;4.414;2022-11-15T12:03:43;4.00;;;0.90;;
26965;SDS011;14522;52.068;4.414;2022-11-15T12:08:50;4.65;;;1.23;;
26965;SDS011;14522;52.068;4.414;2022-11-15T12:13:56;6.25;;;0.90;;
26965;SDS011;14522;52.068;4.414;2022-11-15T12:16:27;3.45;;;0.70;;
26965;SDS011;14522;52.068;4.414;2022-11-15T12:18:54;6.63;;;1.13;;
26965;SDS011;14522;52.068;4.414;2022-11-15T12:24:15;3.50;;;0.90;;
26965;SDS011;14522;52.068;4.414;2022-11-15T12:26:50;6.55;;;1.20;;
26965;SDS011;14522;52.068;4.414;2022-11-15T12:30:02;6.35;;;1.00;;
26965;SDS011;14522;52.068;4.414;2022-11-15T12:34:44;10.77;;;1.15;;
26965;SDS011;14522;52.068;4.414;2022-11-15T12:40:04;8.02;;;0.90;;
26965;SDS011;14522;52.068;4.414;2022-11-15T12:42:35;3.97;;;0.87;;
26965;SDS011;14522;52.068;4.414;2022-11-15T12:45:01;6.35;;;1.15;;
26965;SDS011;14522;52.068;4.414;2022-11-15T12:47:28;4.15;;;0.90;;
26965;SDS011;14522;52.068;4.414;2022-11-15T12:49:54;6.20;;;0.82;;
26965;SDS011;14522;52.068;4.414;2022-11-15T12:52:20;5.72;;;1.27;;
26965;SDS011;14522;52.068;4.414;2022-11-15T12:54:50;4.30;;;0.80;;
26965;SDS011;14522;52.068;4.414;2022-11-15T12:59:52;5.13;;;0.93;;
26965;SDS011;14522;52.068;4.414;2022-11-15T13:04:54;6.72;;;1.58;;
26965;SDS011;14522;52.068;4.414;2022-11-15T13:17:43;6.10;;;1.15;;
26965;SDS011;14522;52.068;4.414;2022-11-15T13:22:41;6.00;;;1.02;;
26965;SDS011;14522;52.068;4.414;2022-11-15T13:33:16;13.45;;;1.10;;
26965;SDS011;14522;52.068;4.414;2022-11-15T13:35:45;6.57;;;0.98;;
26965;SDS011;14522;52.068;4.414;2022-11-15T13:38:26;8.73;;;0.90;;
26965;SDS011;14522;52.068;4.414;2022-11-15T13:40:54;5.18;;;0.95;;
26965;SDS011;14522;52.068;4.414;2022-11-15T13:48:32;4.28;;;0.90;;
26965;SDS011;14522;52.068;4.414;2022-11-15T13:51:04;9.85;;;0.95;;
26965;SDS011;14522;52.068;4.414;2022-11-15T13:53:32;4.93;;;0.75;;
26965;SDS011;14522;52.068;4.414;2022-11-15T13:55:59;4.50;;;1.38;;
26965;SDS011;14522;52.068;4.414;2022-11-15T13:58:26;5.75;;;0.80;;
26965;SDS011;14522;52.068;4.414;2022-11-15T14:00:59;4.82;;;0.82;;
26965;SDS011;14522;52.068;4.414;2022-11-15T14:03:31;5.40;;;0.85;;
26965;SDS011;14522;52.068;4.414;2022-11-15T14:13:33;4.85;;;0.82;;
26965;SDS011;14522;52.068;4.414;2022-11-15T14:16:19;6.00;;;0.80;;
26965;SDS011;14522;52.068;4.414;2022-11-15T14:18:47;5.93;;;0.65;;
26965;SDS011;14522;52.068;4.414;2022-11-15T14:21:14;6.93;;;1.02;;
26965;SDS011;14522;52.068;4.414;2022-11-15T14:23:40;7.60;;;0.60;;
26965;SDS011;14522;52.068;4.414;2022-11-15T14:26:11;5.68;;;0.85;;
26965;SDS011;14522;52.068;4.414;2022-11-15T14:28:51;5.68;;;1.05;;
26965;SDS011;14522;52.068;4.414;2022-11-15T14:31:17;10.10;;;0.85;;
26965;SDS011;14522;52.068;4.414;2022-11-15T14:33:44;7.75;;;1.30;;
26965;SDS011;14522;52.068;4.414;2022-11-15T14:36:15;3.88;;;0.82;;
26965;SDS011;14522;52.068;4.414;2022-11-15T14:38:41;3.95;;;0.80;;
26965;SDS011;14522;52.068;4.414;2022-11-15T14:41:33;3.30;;;0.60;;
26965;SDS011;14522;52.068;4.414;2022-11-15T14:43:58;2.42;;;0.70;;
26965;SDS011;14522;52.068;4.414;2022-11-15T14:46:25;4.72;;;0.73;;
26965;SDS011;14522;52.068;4.414;2022-11-15T14:48:51;7.65;;;1.08;;
26965;SDS011;14522;52.068;4.414;2022-11-15T14:51:18;8.38;;;1.00;;
26965;SDS011;14522;52.068;4.414;2022-11-15T14:53:45;7.10;;;0.65;;
26965;SDS011;14522;52.068;4.414;2022-11-15T14:56:11;1.70;;;0.63;;
26965;SDS011;14522;52.068;4.414;2022-11-15T14:58:38;7.05;;;1.23;;
26965;SDS011;14522;52.068;4.414;2022-11-15T15:01:12;12.38;;;1.02;;
26965;SDS011;14522;52.068;4.414;2022-11-15T15:03:39;5.28;;;1.08;;
26965;SDS011;14522;52.068;4.414;2022-11-15T15:06:06;3.13;;;0.65;;
26965;SDS011;14522;52.068;4.414;2022-11-15T15:08:41;8.13;;;1.40;;
26965;SDS011;14522;52.068;4.414;2022-11-15T15:11:12;3.13;;;0.70;;
26965;SDS011;14522;52.068;4.414;2022-11-15T15:13:40;10.35;;;1.38;;
26965;SDS011;14522;52.068;4.414;2022-11-15T15:16:07;4.05;;;1.02;;
26965;SDS011;14522;52.068;4.414;2022-11-15T15:18:33;2.60;;;0.70;;
26965;SDS011;14522;52.068;4.414;2022-11-15T15:20:59;3.35;;;0.93;;
26965;SDS011;14522;52.068;4.414;2022-11-15T15:23:29;4.68;;;0.80;;
26965;SDS011;14522;52.068;4.414;2022-11-15T15:25:57;3.53;;;0.85;;
26965;SDS011;14522;52.068;4.414;2022-11-15T15:28:24;3.72;;;0.90;;
26965;SDS011;14522;52.068;4.414;2022-11-15T15:30:58;2.50;;;0.95;;
26965;SDS011;14522;52.068;4.414;2022-11-15T15:33:24;3.80;;;0.90;;
26965;SDS011;14522;52.068;4.414;2022-11-15T15:35:50;2.92;;;0.77;;
26965;SDS011;14522;52.068;4.414;2022-11-15T15:38:18;2.38;;;1.00;;
26965;SDS011;14522;52.068;4.414;2022-11-15T15:40:44;3.63;;;0.85;;
26965;SDS011;14522;52.068;4.414;2022-11-15T15:43:10;4.25;;;0.70;;
26965;SDS011;14522;52.068;4.414;2022-11-15T15:45:37;5.95;;;1.10;;
26965;SDS011;14522;52.068;4.414;2022-11-15T15:48:05;3.65;;;0.60;;
26965;SDS011;14522;52.068;4.414;2022-11-15T15:50:32;5.22;;;0.80;;
26965;SDS011;14522;52.068;4.414;2022-11-15T15:53:00;0.82;;;0.52;;
26965;SDS011;14522;52.068;4.414;2022-11-15T15:55:27;3.00;;;0.77;;
26965;SDS011;14522;52.068;4.414;2022-11-15T15:57:53;3.30;;;0.90;;
26965;SDS011;14522;52.068;4.414;2022-11-15T16:00:20;10.20;;;1.15;;
26965;SDS011;14522;52.068;4.414;2022-11-15T16:02:47;5.43;;;0.90;;
26965;SDS011;14522;52.068;4.414;2022-11-15T16:05:13;7.63;;;0.88;;
26965;SDS011;14522;52.068;4.414;2022-11-15T16:07:40;3.45;;;0.75;;
26965;SDS011;14522;52.068;4.414;2022-11-15T16:10:25;6.40;;;0.82;;
26965;SDS011;14522;52.068;4.414;2022-11-15T16:12:53;5.18;;;0.70;;
26965;SDS011;14522;52.068;4.414;2022-11-15T16:15:20;2.55;;;0.90;;
26965;SDS011;14522;52.068;4.414;2022-11-15T16:17:48;2.55;;;0.70;;
26965;SDS011;14522;52.068;4.414;2022-11-15T16:23:01;2.08;;;0.80;;
26965;SDS011;14522;52.068;4.414;2022-11-15T16:25:37;4.50;;;0.90;;
26965;SDS011;14522;52.068;4.414;2022-11-15T16:28:04;5.55;;;0.82;;
26965;SDS011;14522;52.068;4.414;2022-11-15T16:30:30;3.80;;;1.08;;
26965;SDS011;14522;52.068;4.414;2022-11-15T16:32:57;9.48;;;1.20;;
26965;SDS011;14522;52.068;4.414;2022-11-15T16:35:23;3.67;;;1.33;;
26965;SDS011;14522;52.068;4.414;2022-11-15T16:37:50;2.40;;;0.95;;
26965;SDS011;14522;52.068;4.414;2022-11-15T16:40:25;5.82;;;0.90;;
26965;SDS011;14522;52.068;4.414;2022-11-15T16:42:52;6.45;;;1.25;;
26965;SDS011;14522;52.068;4.414;2022-11-15T16:45:18;3.55;;;1.42;;
26965;SDS011;14522;52.068;4.414;2022-11-15T16:47:45;4.32;;;0.88;;
26965;SDS011;14522;52.068;4.414;2022-11-15T16:50:24;4.45;;;0.98;;
26965;SDS011;14522;52.068;4.414;2022-11-15T16:52:54;3.90;;;1.05;;
26965;SDS011;14522;52.068;4.414;2022-11-15T16:55:22;3.38;;;1.30;;
26965;SDS011;14522;52.068;4.414;2022-11-15T16:57:48;2.95;;;1.00;;
26965;SDS011;14522;52.068;4.414;2022-11-15T17:00:15;4.85;;;1.00;;
26965;SDS011;14522;52.068;4.414;2022-11-15T17:02:43;3.00;;;0.77;;
26965;SDS011;14522;52.068;4.414;2022-11-15T17:05:10;4.25;;;1.50;;
26965;SDS011;14522;52.068;4.414;2022-11-15T17:07:45;3.40;;;1.15;;
26965;SDS011;14522;52.068;4.414;2022-11-15T17:10:12;4.93;;;1.85;;
26965;SDS011;14522;52.068;4.414;2022-11-15T17:12:38;5.82;;;1.33;;
26965;SDS011;14522;52.068;4.414;2022-11-15T17:15:05;2.55;;;0.95;;
26965;SDS011;14522;52.068;4.414;2022-11-15T17:17:31;3.25;;;1.00;;